createdAt,value
2023-05-06T00:00:56.908Z,5.20
2023-05-06T00:03:59.991Z,5.37
2023-05-06T00:07:02.919Z,5.65
2023-05-06T00:10:06.705Z,5.77
2023-05-06T00:13:09.590Z,6.03
2023-05-06T00:16:12.846Z,5.80
2023-05-06T00:19:15.675Z,6.35
2023-05-06T00:22:18.831Z,5.85
2023-05-06T00:25:21.897Z,6.20
2023-05-06T00:28:25.521Z,7.07
2023-05-06T00:31:28.422Z,6.72
2023-05-06T00:34:31.490Z,6.87
2023-05-06T00:37:34.153Z,7.45
2023-05-06T00:40:37.424Z,6.90
2023-05-06T00:43:40.219Z,7.47
2023-05-06T00:46:43.999Z,7.95
2023-05-06T00:49:47.242Z,7.97
2023-05-06T00:52:51.120Z,7.80
2023-05-06T00:55:54.299Z,7.77
2023-05-06T00:58:58.013Z,7.60
2023-05-06T01:02:01.231Z,8.90
2023-05-06T01:05:05.890Z,9.02
2023-05-06T01:08:25.635Z,8.65
2023-05-06T01:11:38.868Z,8.60
2023-05-06T01:14:55.987Z,8.33
2023-05-06T01:18:01.134Z,7.82
2023-05-06T01:21:05.634Z,8.32
2023-05-06T01:24:09.032Z,8.05
2023-05-06T01:27:14.072Z,8.23
2023-05-06T01:30:19.891Z,8.30
2023-05-06T01:33:48.553Z,8.32
2023-05-06T01:37:22.487Z,7.68
2023-05-06T01:40:27.483Z,7.25
2023-05-06T01:43:38.412Z,8.17
2023-05-06T01:46:43.138Z,7.73
2023-05-06T01:49:48.251Z,7.35
2023-05-06T01:53:01.469Z,6.87
2023-05-06T01:56:05.428Z,8.10
2023-05-06T01:59:08.116Z,7.63
2023-05-06T02:02:11.501Z,7.63
2023-05-06T02:05:14.498Z,6.95
2023-05-06T02:08:18.229Z,7.45
2023-05-06T02:11:21.520Z,8.38
2023-05-06T02:14:24.993Z,7.00
2023-05-06T02:17:28.504Z,7.70
2023-05-06T02:20:32.114Z,7.60
2023-05-06T02:23:35.296Z,8.35
2023-05-06T02:26:38.325Z,7.62
2023-05-06T02:29:40.970Z,7.70
2023-05-06T02:32:44.111Z,6.90
2023-05-06T02:35:46.915Z,7.95
2023-05-06T02:38:52.527Z,7.68
2023-05-06T02:41:55.250Z,7.78
2023-05-06T02:44:58.283Z,8.77
2023-05-06T02:48:01.051Z,8.00
2023-05-06T02:51:06.465Z,9.38
2023-05-06T02:54:09.248Z,9.00
2023-05-06T02:57:12.373Z,8.80
2023-05-06T03:00:15.717Z,8.13
2023-05-06T03:03:18.897Z,8.20
2023-05-06T03:06:21.941Z,8.07
2023-05-06T03:09:25.007Z,8.65
2023-05-06T03:12:27.903Z,7.90
2023-05-06T03:15:32.744Z,8.43
2023-05-06T03:18:35.469Z,8.60
2023-05-06T03:21:39.091Z,8.48
2023-05-06T03:24:41.890Z,8.18
2023-05-06T03:27:45.034Z,9.07
2023-05-06T03:30:48.817Z,8.33
2023-05-06T03:33:52.754Z,8.57
2023-05-06T03:36:56.281Z,8.00
2023-05-06T03:40:04.064Z,7.82
2023-05-06T03:43:07.393Z,9.48
2023-05-06T03:46:11.547Z,8.93
2023-05-06T03:49:15.584Z,7.70
2023-05-06T03:52:20.042Z,8.45
2023-05-06T03:55:23.153Z,8.07
2023-05-06T03:58:26.566Z,8.10
2023-05-06T04:01:29.351Z,8.60
2023-05-06T04:04:32.702Z,8.53
2023-05-06T04:07:35.436Z,8.48
2023-05-06T04:10:41.944Z,9.25
2023-05-06T04:13:45.861Z,8.20
2023-05-06T04:16:49.541Z,9.03
2023-05-06T04:19:54.015Z,9.20
2023-05-06T04:22:57.498Z,8.23
2023-05-06T04:26:01.451Z,8.60
2023-05-06T04:29:05.200Z,10.38
2023-05-06T04:32:10.496Z,10.03
2023-05-06T04:35:13.860Z,9.53
2023-05-06T04:38:17.738Z,9.30
2023-05-06T04:41:20.987Z,9.82
2023-05-06T04:44:23.934Z,9.82
2023-05-06T04:47:28.094Z,9.10
2023-05-06T04:50:30.982Z,8.93
2023-05-06T04:53:34.209Z,10.13
2023-05-06T04:56:37.141Z,8.52
2023-05-06T04:59:42.773Z,9.15
2023-05-06T05:02:47.108Z,10.60
2023-05-06T05:05:50.904Z,9.40
2023-05-06T05:08:55.417Z,9.27
2023-05-06T05:11:59.240Z,9.85
2023-05-06T05:15:02.486Z,10.43
2023-05-06T05:18:06.379Z,10.53
2023-05-06T05:21:10.307Z,9.70
2023-05-06T05:24:13.592Z,10.50
2023-05-06T05:27:16.628Z,8.93
2023-05-06T05:30:20.262Z,8.85
2023-05-06T05:33:23.573Z,9.37
2023-05-06T05:36:27.811Z,8.67
2023-05-06T05:39:31.072Z,8.65
2023-05-06T05:42:34.675Z,8.95
2023-05-06T05:45:38.283Z,8.63
2023-05-06T05:48:42.128Z,9.47
2023-05-06T05:51:46.226Z,9.47
2023-05-06T05:54:51.576Z,8.80
2023-05-06T05:57:55.164Z,8.70
2023-05-06T06:00:58.888Z,8.80
2023-05-06T06:04:02.968Z,8.80
2023-05-06T06:07:06.161Z,8.50
2023-05-06T06:10:10.253Z,8.88
2023-05-06T06:13:13.611Z,8.65
2023-05-06T06:16:17.423Z,8.98
2023-05-06T06:19:20.596Z,7.83
2023-05-06T06:22:24.482Z,9.00
2023-05-06T06:25:27.767Z,8.55
2023-05-06T06:28:31.498Z,8.35
2023-05-06T06:31:35.079Z,8.20
2023-05-06T06:34:38.125Z,8.00
2023-05-06T06:37:40.818Z,7.77
2023-05-06T06:40:44.002Z,8.50
2023-05-06T06:43:46.730Z,8.75
2023-05-06T06:46:50.632Z,8.60
2023-05-06T06:49:54.109Z,8.03
2023-05-06T06:52:57.207Z,8.07
2023-05-06T06:55:59.911Z,7.87
2023-05-06T06:59:02.849Z,8.18
2023-05-06T07:02:05.767Z,7.22
2023-05-06T07:05:09.540Z,7.27
2023-05-06T07:08:12.590Z,7.33
2023-05-06T07:11:15.795Z,6.93
2023-05-06T07:14:18.421Z,7.40
2023-05-06T07:17:21.647Z,6.55
2023-05-06T07:20:24.339Z,6.10
2023-05-06T07:23:32.019Z,5.83
2023-05-06T07:26:38.531Z,6.53
2023-05-06T07:29:41.572Z,5.85
2023-05-06T07:32:44.229Z,5.78
2023-05-06T07:35:47.198Z,5.77
2023-05-06T07:38:50.747Z,7.00
2023-05-06T07:41:53.885Z,5.53
2023-05-06T07:44:56.659Z,5.60
2023-05-06T07:47:59.747Z,5.85
2023-05-06T07:51:03.421Z,5.50
2023-05-06T07:54:06.574Z,5.17
2023-05-06T07:57:09.527Z,4.60
2023-05-06T08:00:13.110Z,4.32
2023-05-06T08:03:17.209Z,5.32
2023-05-06T08:06:20.452Z,4.97
2023-05-06T08:09:23.426Z,5.07
2023-05-06T08:12:26.467Z,5.00
2023-05-06T08:15:29.282Z,5.10
2023-05-06T08:18:32.763Z,4.35
2023-05-06T08:21:35.707Z,4.97
2023-05-06T08:24:38.721Z,5.70
2023-05-06T08:27:41.365Z,5.07
2023-05-06T08:30:47.855Z,4.97
2023-05-06T08:33:53.072Z,5.05
2023-05-06T08:36:57.509Z,4.70
2023-05-06T08:40:00.210Z,4.63
2023-05-06T08:43:05.540Z,5.22
2023-05-06T08:46:09.053Z,4.90
2023-05-06T08:49:12.169Z,3.92
2023-05-06T08:52:15.381Z,4.50
2023-05-06T08:55:19.562Z,4.83
2023-05-06T08:58:24.949Z,5.18
2023-05-06T09:01:29.257Z,5.30
2023-05-06T09:04:32.076Z,4.03
2023-05-06T09:07:35.224Z,5.33
2023-05-06T09:10:45.140Z,5.40
2023-05-06T09:13:48.270Z,5.82
2023-05-06T09:16:53.540Z,5.32
2023-05-06T09:19:57.738Z,4.62
2023-05-06T09:23:01.739Z,4.37
2023-05-06T09:26:05.670Z,4.20
2023-05-06T09:29:08.720Z,4.30
2023-05-06T09:32:14.737Z,4.60
2023-05-06T09:35:17.682Z,4.70
2023-05-06T09:38:21.954Z,4.30
2023-05-06T09:41:25.767Z,4.90
2023-05-06T09:44:29.527Z,3.60
2023-05-06T09:47:35.887Z,3.90
2023-05-06T09:50:39.604Z,4.20
2023-05-06T09:53:44.693Z,4.07
2023-05-06T09:56:48.469Z,3.50
2023-05-06T09:59:54.338Z,3.53
2023-05-06T10:02:59.546Z,3.42
2023-05-06T10:06:06.312Z,3.35
2023-05-06T10:09:10.641Z,3.30
2023-05-06T10:12:14.157Z,3.27
2023-05-06T10:15:17.076Z,3.35
2023-05-06T10:18:22.149Z,2.62
2023-05-06T10:21:28.046Z,3.25
2023-05-06T10:24:37.190Z,3.40
2023-05-06T10:27:43.989Z,3.83
2023-05-06T10:30:49.651Z,3.25
2023-05-06T10:33:54.887Z,3.28
2023-05-06T10:37:00.394Z,6.22
2023-05-06T10:40:04.927Z,10.37
2023-05-06T10:43:21.426Z,10.90
2023-05-06T10:46:26.556Z,9.90
2023-05-06T10:49:29.994Z,9.82
2023-05-06T10:52:46.749Z,10.18
2023-05-06T10:56:09.599Z,9.30
2023-05-06T10:59:13.210Z,10.20
2023-05-06T11:02:20.430Z,10.23
2023-05-06T11:05:24.284Z,10.38
2023-05-06T11:08:27.688Z,9.73
2023-05-06T11:11:49.240Z,9.97
2023-05-06T11:14:52.336Z,9.47
2023-05-06T11:17:59.709Z,9.65
2023-05-06T11:21:02.985Z,8.88
2023-05-06T11:24:06.836Z,10.00
2023-05-06T11:27:11.335Z,9.63
2023-05-06T11:30:15.271Z,8.70
2023-05-06T11:33:21.849Z,9.52
2023-05-06T11:36:24.408Z,9.93
2023-05-06T11:39:39.324Z,9.57
2023-05-06T11:42:43.327Z,9.67
2023-05-06T11:45:50.488Z,10.23
2023-05-06T11:48:53.145Z,9.50
2023-05-06T11:51:57.416Z,8.05
2023-05-06T11:55:00.163Z,7.62
2023-05-06T11:58:03.207Z,8.00
2023-05-06T12:01:05.947Z,8.47
2023-05-06T12:04:09.464Z,8.82
2023-05-06T12:07:14.389Z,10.05
2023-05-06T12:10:18.335Z,10.32
2023-05-06T12:13:23.490Z,11.33
2023-05-06T12:16:27.287Z,12.97
2023-05-06T12:19:31.768Z,13.35
2023-05-06T12:22:35.343Z,15.10
2023-05-06T12:25:39.824Z,14.15
2023-05-06T12:28:44.082Z,14.20
2023-05-06T12:31:48.256Z,12.47
2023-05-06T12:34:51.399Z,11.63
2023-05-06T12:37:54.153Z,12.32
2023-05-06T12:40:57.413Z,11.90
2023-05-06T12:44:00.178Z,11.17
2023-05-06T12:47:08.034Z,11.17
2023-05-06T12:50:11.123Z,11.88
2023-05-06T12:53:14.317Z,11.32
2023-05-06T12:56:17.242Z,12.75
2023-05-06T12:59:20.536Z,11.03
2023-05-06T13:02:23.256Z,11.03
2023-05-06T13:05:26.394Z,12.10
2023-05-06T13:08:29.715Z,11.98
2023-05-06T13:11:32.719Z,11.75
2023-05-06T13:14:37.729Z,10.30
2023-05-06T13:17:42.299Z,10.77
2023-05-06T13:20:47.068Z,11.88
2023-05-06T13:23:50.145Z,8.68
2023-05-06T13:26:53.103Z,7.87
2023-05-06T13:29:56.104Z,8.37
2023-05-06T13:32:58.956Z,9.17
2023-05-06T13:36:04.583Z,8.50
2023-05-06T13:39:11.896Z,7.40
2023-05-06T13:42:14.977Z,7.78
2023-05-06T13:45:17.813Z,8.13
2023-05-06T13:48:20.954Z,6.57
2023-05-06T13:51:24.052Z,8.65
2023-05-06T13:54:27.150Z,7.90
2023-05-06T13:57:29.859Z,7.60
2023-05-06T14:00:34.549Z,7.00
2023-05-06T14:03:37.628Z,6.30
2023-05-06T14:06:43.599Z,6.43
2023-05-06T14:09:46.691Z,6.00
2023-05-06T14:12:49.526Z,6.78
2023-05-06T14:15:54.408Z,6.23
2023-05-06T14:18:57.145Z,5.27
2023-05-06T14:22:00.202Z,5.90
2023-05-06T14:25:03.011Z,5.10
2023-05-06T14:28:11.040Z,3.00
2023-05-06T14:31:13.840Z,3.97
2023-05-06T14:34:17.244Z,4.87
2023-05-06T14:37:19.930Z,3.80
2023-05-06T14:40:23.051Z,4.87
2023-05-06T14:43:25.893Z,4.55
2023-05-06T14:46:29.777Z,5.40
2023-05-06T14:49:32.602Z,5.37
2023-05-06T14:52:36.608Z,5.60
2023-05-06T14:55:41.644Z,5.70
2023-05-06T14:58:44.722Z,5.35
2023-05-06T15:01:47.389Z,5.60
2023-05-06T15:04:50.905Z,5.17
2023-05-06T15:07:55.131Z,5.22
2023-05-06T15:10:58.155Z,4.62
2023-05-06T15:14:00.864Z,5.30
2023-05-06T15:17:03.944Z,4.63
2023-05-06T15:20:08.931Z,4.80
2023-05-06T15:23:11.918Z,4.72
2023-05-06T15:26:14.743Z,4.60
2023-05-06T15:29:20.725Z,4.53
2023-05-06T15:32:23.696Z,5.07
2023-05-06T15:35:27.372Z,4.67
2023-05-06T15:38:53.352Z,4.28
2023-05-06T15:41:59.881Z,4.90
2023-05-06T15:45:02.612Z,4.53
2023-05-06T15:48:05.690Z,4.50
2023-05-06T15:51:08.605Z,4.70
2023-05-06T15:54:11.575Z,4.70
2023-05-06T15:57:15.221Z,4.62
2023-05-06T16:00:18.417Z,4.80
2023-05-06T16:03:21.750Z,4.50
2023-05-06T16:06:24.947Z,4.07
2023-05-06T16:09:28.040Z,5.00
2023-05-06T16:12:32.809Z,4.78
2023-05-06T16:15:35.916Z,4.53
2023-05-06T16:18:38.611Z,4.50
2023-05-06T16:21:41.544Z,4.60
2023-05-06T16:24:44.358Z,5.28
2023-05-06T16:27:47.419Z,4.90
2023-05-06T16:30:50.076Z,5.05
2023-05-06T16:33:53.168Z,5.57
2023-05-06T16:36:57.365Z,4.70
2023-05-06T16:40:00.907Z,5.15
2023-05-06T16:43:03.575Z,5.53
2023-05-06T16:46:06.781Z,5.72
2023-05-06T16:49:09.704Z,6.67
2023-05-06T16:52:13.077Z,6.80
2023-05-06T16:55:16.006Z,8.10
2023-05-06T16:58:19.676Z,7.70
2023-05-06T17:01:22.367Z,8.88
2023-05-06T17:04:25.496Z,12.47
2023-05-06T17:07:28.200Z,11.33
2023-05-06T17:10:31.257Z,11.15
2023-05-06T17:13:34.693Z,11.93
2023-05-06T17:16:39.018Z,14.18
2023-05-06T17:19:41.955Z,22.20
2023-05-06T17:22:44.974Z,18.17
2023-05-06T17:25:47.600Z,15.32
2023-05-06T17:28:51.351Z,13.48
2023-05-06T17:31:54.181Z,13.52
2023-05-06T17:34:57.252Z,13.87
2023-05-06T17:38:00.008Z,14.10
2023-05-06T17:41:03.106Z,12.93
2023-05-06T17:44:06.888Z,10.77
2023-05-06T17:47:10.514Z,10.48
2023-05-06T17:50:13.327Z,11.23
2023-05-06T17:53:16.463Z,11.30
2023-05-06T17:56:20.520Z,11.48
2023-05-06T17:59:25.624Z,12.18
2023-05-06T18:02:29.122Z,12.20
2023-05-06T18:05:32.339Z,11.93
2023-05-06T18:08:35.381Z,10.83
2023-05-06T18:11:39.415Z,11.60
2023-05-06T18:14:45.212Z,11.43
2023-05-06T18:17:48.234Z,11.80
2023-05-06T18:20:51.410Z,12.33
2023-05-06T18:24:01.906Z,11.03
2023-05-06T18:27:08.481Z,9.55
2023-05-06T18:30:11.868Z,10.15
2023-05-06T18:33:14.686Z,10.18
2023-05-06T18:36:18.045Z,9.60
2023-05-06T18:39:23.722Z,9.77
2023-05-06T18:42:27.910Z,8.20
2023-05-06T18:45:30.947Z,7.03
2023-05-06T18:48:34.153Z,5.22
2023-05-06T18:51:37.068Z,3.80
2023-05-06T18:54:41.241Z,3.20
2023-05-06T18:57:44.432Z,3.05
2023-05-06T19:00:47.493Z,3.28
2023-05-06T19:03:50.332Z,3.22
2023-05-06T19:06:53.498Z,3.00
2023-05-06T19:09:56.337Z,3.13
2023-05-06T19:12:59.396Z,3.80
2023-05-06T19:16:02.194Z,3.35
2023-05-06T19:19:08.534Z,3.75
2023-05-06T19:22:11.281Z,3.80
2023-05-06T19:25:14.622Z,4.00
2023-05-06T19:28:17.375Z,4.72
2023-05-06T19:31:21.212Z,4.65
2023-05-06T19:34:24.023Z,4.62
2023-05-06T19:37:30.291Z,4.37
2023-05-06T19:40:35.278Z,4.17
2023-05-06T19:43:45.064Z,4.12
2023-05-06T19:46:52.378Z,4.47
2023-05-06T19:49:56.036Z,3.87
2023-05-06T19:52:58.889Z,3.43
2023-05-06T19:56:12.811Z,3.37
2023-05-06T19:59:17.672Z,3.62
2023-05-06T20:02:21.207Z,3.12
2023-05-06T20:05:25.274Z,3.10
2023-05-06T20:08:28.713Z,3.60
2023-05-06T20:11:32.121Z,3.63
2023-05-06T20:14:35.116Z,3.72
2023-05-06T20:17:40.776Z,4.62
2023-05-06T20:20:44.310Z,13.62
2023-05-06T20:23:47.410Z,6.50
2023-05-06T20:26:50.740Z,6.60
2023-05-06T20:29:53.656Z,6.87
2023-05-06T20:32:56.844Z,6.03
2023-05-06T20:35:59.914Z,7.57
2023-05-06T20:39:03.086Z,6.23
2023-05-06T20:42:06.529Z,6.23
2023-05-06T20:45:10.153Z,5.18
2023-05-06T20:48:14.953Z,6.18
2023-05-06T20:51:18.246Z,6.93
2023-05-06T20:54:21.193Z,5.90
2023-05-06T20:57:23.874Z,6.10
2023-05-06T21:00:26.984Z,6.03
2023-05-06T21:03:30.627Z,7.70
2023-05-06T21:06:33.771Z,6.15
2023-05-06T21:09:38.272Z,5.73
2023-05-06T21:12:47.864Z,5.50
2023-05-06T21:15:50.758Z,6.70
2023-05-06T21:18:53.806Z,6.65
2023-05-06T21:21:56.968Z,6.07
2023-05-06T21:24:59.967Z,6.77
2023-05-06T21:28:06.768Z,7.90
2023-05-06T21:31:09.739Z,7.03
2023-05-06T21:34:12.636Z,8.10
2023-05-06T21:37:15.578Z,7.62
2023-05-06T21:40:18.507Z,7.10
2023-05-06T21:43:21.708Z,6.77
2023-05-06T21:46:24.634Z,6.50
2023-05-06T21:49:27.791Z,5.95
2023-05-06T21:52:31.195Z,5.12
2023-05-06T21:55:34.204Z,5.80
2023-05-06T21:58:37.016Z,5.37
2023-05-06T22:01:40.266Z,6.03
2023-05-06T22:04:43.639Z,5.85
2023-05-06T22:07:46.508Z,6.60
2023-05-06T22:10:49.535Z,5.93
2023-05-06T22:13:52.337Z,6.00
2023-05-06T22:16:55.401Z,5.70
2023-05-06T22:19:58.340Z,5.87
2023-05-06T22:23:01.997Z,5.93
2023-05-06T22:26:05.422Z,6.07
2023-05-06T22:29:08.746Z,5.53
2023-05-06T22:32:11.469Z,6.40
2023-05-06T22:35:14.526Z,6.28
2023-05-06T22:38:17.619Z,6.40
2023-05-06T22:41:21.573Z,5.83
2023-05-06T22:44:24.660Z,5.57
2023-05-06T22:47:27.749Z,6.00
2023-05-06T22:50:30.410Z,6.15
2023-05-06T22:53:33.616Z,6.53
2023-05-06T22:56:36.274Z,6.60
2023-05-06T22:59:39.230Z,6.60
2023-05-06T23:02:42.088Z,6.90
2023-05-06T23:05:45.958Z,6.37
2023-05-06T23:08:48.634Z,6.70
2023-05-06T23:11:51.670Z,5.73
2023-05-06T23:14:54.503Z,5.70
2023-05-06T23:17:57.509Z,6.00
2023-05-06T23:21:00.353Z,5.12
2023-05-06T23:24:03.496Z,5.50
2023-05-06T23:27:06.194Z,5.27
2023-05-06T23:30:10.755Z,6.00
2023-05-06T23:33:13.423Z,5.95
2023-05-06T23:36:17.379Z,5.68
2023-05-06T23:39:19.975Z,5.82
2023-05-06T23:42:24.363Z,5.30
2023-05-06T23:45:29.058Z,5.30
2023-05-06T23:48:33.578Z,4.03
2023-05-06T23:51:36.450Z,4.93
2023-05-06T23:54:39.478Z,4.20
2023-05-06T23:57:42.229Z,4.50
